Terminal Aerodrome Forecast
Issued by NWS

Home | Current Version | Previous Version | Graphics & Text | Print | Product List | Glossary On
Versions: 1 2 3 4 5 6 7 8 9 10 11 12 13 14 15 16 17 18 19 20 21 22 23 24 25 26 27 28 29 30 31 32 33 34 35 36 37 38 39 40 41 42 43 44 45 46 47 48 49 50
578
FTUS43 KLOT 050541
TAFGYY
TAF
KGYY 050541Z 0506/0606 25007KT 3SM BR OVC005
     FM051200 23005KT 3/4SM BR OVC003
      TEMPO 0512/0515 1/4SM FZFG VV002
     FM051600 20006KT 2SM BR OVC005
     FM051900 19009KT 6SM BR OVC012=

USA.gov is the U.S. government's official web portal to all federal, state and local government web resources and services.